Date,TemperatureHighF,TemperatureAvgF,TemperatureLowF,DewpointHighF,DewpointAvgF,DewpointLowF,HumidityHigh,HumidityAvg,HumidityLow,PressureMaxIn,PressureMinIn,WindSpeedMaxMPH,WindSpeedAvgMPH,GustSpeedMaxMPH,PrecipitationSumIn
2013-1-1,14.3,9.5,5.2,2.2,-2.7,-5.0,73,57,41,30.83,30.61,27,7,33,0.00
2013-1-2,15.3,9.0,4.6,0.4,-2.0,-6.0,76,59,46,30.99,30.81,24,4,30,0.00
2013-1-3,27.5,15.7,3.8,-6.0,-9.1,-17.0,61,35,13,31.03,30.70,10,2,17,0.00
2013-1-4,37.2,28.2,22.4,9.0,3.0,-7.0,41,33,26,30.70,30.29,7,2,10,0.00
2013-1-5,30.3,25.5,19.9,0.0,-5.0,-19.0,35,25,12,30.61,30.29,25,7,32,0.00
2013-1-6,47.2,34.8,26.1,-3.0,-19.8,-41.0,20,9,3,30.59,30.14,8,2,16,0.00
2013-1-7,41.9,32.9,27.6,-3.0,-9.2,-19.0,22,15,7,30.15,30.01,16,4,38,0.00
2013-1-8,33.7,28.8,24.8,14.8,8.6,-11.0,55,44,13,30.52,29.97,26,6,41,0.00
2013-1-9,47.7,36.9,28.3,9.6,5.5,-2.0,43,28,14,30.58,30.18,11,3,23,0.00
2013-1-10,44.6,36.8,27.1,7.2,-2.8,-12.0,41,19,10,30.18,29.56,9,2,14,0.00
2013-1-11,27.0,15.1,2.3,15.6,2.2,-10.0,79,57,34,30.09,29.37,28,6,39,0.03
2013-1-12,9.2,1.8,-4.0,-3.0,-9.8,-14.0,76,57,34,30.50,30.09,22,3,27,0.00
2013-1-13,6.9,-1.2,-8.0,-4.0,-10.5,-15.0,78,64,43,30.67,30.48,9,1,14,0.00
2013-1-14,10.2,0.7,-6.0,-1.0,-9.4,-16.0,77,62,46,30.74,30.61,22,2,28,0.00
2013-1-15,24.5,16.9,-1.0,10.6,1.7,-16.0,61,51,43,30.74,30.63,23,6,31,0.00
2013-1-16,36.7,27.3,19.3,15.9,13.6,8.1,70,57,40,30.71,30.56,23,3,29,0.00
2013-1-17,40.2,30.8,23.4,13.3,6.8,-1.0,60,37,22,30.71,30.50,19,2,27,0.00
2013-1-18,35.8,31.9,29.2,3.1,0.0,-4.0,30,25,21,30.50,30.33,35,12,49,0.00
2013-1-19,41.4,32.7,28.0,1.3,-2.4,-11.0,30,22,10,30.54,30.26,39,8,53,0.00
2013-1-20,32.5,29.2,26.1,0.2,-1.9,-7.0,31,25,17,30.41,30.33,17,6,26,0.00
2013-1-27,38.5,32.5,29.2,16.3,11.5,8.8,46,41,32,29.97,29.91,5,1,10,0.00
2013-1-28,40.1,27.7,15.4,20.4,14.2,6.6,82,59,35,29.90,29.67,17,2,24,0.09
2013-1-29,15.2,9.0,3.4,10.7,-0.3,-6.0,82,65,46,30.41,29.84,28,6,34,0.03
2013-1-30,20.4,13.5,4.0,13.8,5.8,-5.0,80,71,57,30.44,30.29,38,12,56,0.01
2013-1-31,27.4,22.9,19.6,14.0,11.0,5.8,78,61,40,30.49,30.26,43,15,60,0.00
2013-2-1,28.4,24.1,21.7,17.9,13.1,9.7,80,63,51,30.50,30.33,36,12,55,0.04
2013-2-2,35.1,28.4,22.8,11.5,5.2,0.1,60,38,24,30.68,30.42,40,9,51,0.00
2013-2-3,40.5,32.0,25.9,3.8,-3.8,-18.0,33,22,9,30.54,30.16,26,5,30,0.00
2013-2-4,33.4,28.7,24.6,11.1,3.0,-3.0,49,33,23,30.25,30.09,37,9,63,0.00
2013-2-5,44.5,34.4,26.1,21.2,16.2,10.2,56,47,39,30.31,30.05,22,4,42,0.00
2013-2-6,38.4,31.8,20.6,21.3,16.7,13.5,81,55,37,30.24,29.96,13,3,21,0.02
2013-2-7,36.9,26.3,16.7,14.2,0.1,-26.0,76,37,6,30.43,30.23,14,3,23,0.00
2013-2-8,38.7,29.4,25.1,17.9,4.0,-7.0,70,35,20,30.33,29.93,11,3,15,0.00
2013-2-9,26.5,20.8,14.5,20.0,12.8,5.2,81,71,59,29.93,29.72,13,3,27,0.02
2013-2-10,17.1,12.8,8.2,11.4,6.0,3.3,81,74,62,30.42,29.82,19,3,36,0.03
2013-2-11,19.4,9.9,2.1,12.3,4.0,-2.0,81,76,60,30.54,30.40,11,1,18,0.00
2013-2-12,25.6,14.1,4.6,4.4,-0.7,-7.0,76,52,29,30.56,30.50,29,5,31,0.00
2013-2-13,22.6,19.7,14.9,11.4,7.6,4.0,66,59,51,30.52,30.34,27,9,46,0.00
2013-2-14,24.6,18.3,10.4,14.6,9.0,5.1,80,67,50,30.56,30.30,31,6,41,0.01
2013-2-15,21.2,17.0,13.1,11.2,7.7,3.8,79,67,50,30.74,30.53,32,9,50,0.00
2013-2-16,33.4,26.8,20.1,12.1,8.9,1.2,61,47,27,30.67,30.29,40,14,53,0.00
2013-2-17,41.0,31.6,18.5,10.5,-1.6,-15.0,60,26,10,30.32,29.80,29,7,46,0.00
2013-2-18,18.3,14.9,11.1,6.3,0.9,-16.0,68,54,20,30.49,29.87,28,7,38,0.00
2013-2-19,37.2,25.0,18.0,7.0,-9.6,-31.0,55,26,6,30.48,30.01,13,2,15,0.00
2013-2-20,33.3,22.9,13.9,14.2,7.3,1.8,81,54,30,30.01,29.81,10,2,13,0.05
2013-2-21,20.5,14.2,10.3,14.1,8.9,5.6,82,79,74,30.26,29.87,11,2,14,0.02
2013-2-22,24.3,15.5,10.6,12.8,4.4,-1.0,75,61,43,30.32,30.21,31,5,46,0.00
2013-2-23,36.0,22.2,11.1,18.0,9.0,0.0,81,58,38,30.23,29.96,50,7,50,0.01
2013-2-24,16.0,13.5,8.5,11.3,8.9,3.8,82,82,81,30.49,29.95,20,4,27,0.11
2013-2-25,28.8,18.7,7.6,13.3,4.7,0.0,82,57,32,30.52,30.19,14,3,22,0.00
2013-2-26,23.1,17.6,11.7,12.7,8.4,4.7,81,68,46,30.48,30.07,11,2,22,0.05
2013-2-27,20.4,13.1,6.5,5.7,-0.3,-6.0,77,56,33,30.71,30.48,20,6,31,0.00
2013-2-28,22.9,16.9,9.2,11.1,4.2,-3.0,72,57,42,30.73,30.63,32,10,43,0.00
2013-3-1,31.0,24.7,17.3,18.8,14.9,10.7,78,66,54,30.73,30.65,32,10,45,0.00
2013-3-2,41.1,33.3,25.9,19.9,17.5,12.0,68,53,34,30.67,30.31,39,8,42,0.00
2013-3-3,43.6,36.5,30.3,22.9,16.8,10.0,71,45,34,30.31,29.83,30,6,36,0.00
2013-3-4,36.2,22.7,11.4,23.8,12.8,-3.0,81,66,43,30.46,29.82,33,6,45,0.01
2013-3-5,41.8,28.0,10.5,-1.0,-7.8,-15.0,55,23,8,30.66,30.42,28,5,31,0.00
2013-3-6,49.5,38.5,30.0,15.3,2.0,-12.0,34,22,13,30.43,30.00,13,2,22,0.00
2013-3-7,48.5,39.1,32.7,18.0,11.1,5.2,47,32,19,30.10,30.00,14,3,16,0.00
2013-3-8,45.7,35.4,24.4,22.8,14.6,1.7,81,46,24,30.09,29.75,11,2,15,0.00
2013-3-9,26.5,21.7,12.7,21.1,16.9,7.9,89,81,79,30.36,29.70,22,4,26,0.21
2013-3-10,30.2,20.9,10.7,13.9,9.6,4.5,81,62,47,30.52,30.35,36,9,40,0.00
2013-3-11,34.9,27.7,23.5,20.8,14.6,6.2,80,58,42,30.46,30.11,44,12,59,0.01
2013-3-12,35.8,27.5,16.4,23.2,18.3,11.8,82,69,51,30.52,30.34,28,5,33,0.07
2013-3-13,42.8,36.7,31.5,22.0,18.9,14.7,63,49,33,30.53,30.45,28,7,39,0.00
2013-3-14,50.4,42.8,37.5,19.8,14.5,4.4,47,33,16,30.48,30.29,22,7,36,0.00
2013-3-15,54.4,46.4,38.0,24.8,17.6,12.7,56,32,23,30.30,29.97,19,5,34,0.00
2013-3-16,42.6,35.6,30.2,29.2,24.0,20.1,78,63,50,30.01,29.89,19,3,27,0.00
2013-3-17,38.9,29.2,15.8,24.7,17.7,10.4,81,63,34,30.05,29.72,24,6,41,0.03
2013-3-18,25.4,18.5,13.4,14.3,10.2,4.6,80,70,56,30.36,30.04,23,7,29,0.00
2013-3-19,31.9,25.0,15.3,12.2,-2.9,-20.0,64,33,10,30.60,30.29,40,9,54,0.00
2013-3-20,44.5,32.0,13.5,21.1,7.9,-13.0,71,38,19,30.58,29.92,29,6,49,0.00
2013-3-21,40.3,29.6,19.1,24.3,16.4,6.2,77,58,39,30.01,29.69,36,8,42,0.01
2013-3-22,35.5,21.2,13.5,18.2,9.8,-1.0,81,65,21,30.18,29.96,15,3,22,0.09
2013-3-23,13.9,7.4,2.5,9.1,2.4,-2.0,88,79,73,30.65,30.13,18,4,19,0.06
2013-3-24,13.9,6.8,2.3,2.4,-1.2,-7.0,80,69,37,30.68,30.58,17,3,30,0.00
2013-3-25,25.0,14.8,5.0,8.4,-0.6,-5.0,82,52,26,30.73,30.64,23,5,27,0.00
2013-3-26,38.0,23.5,17.0,16.6,6.8,-4.0,58,49,38,30.64,30.39,20,4,28,0.00
2013-3-27,43.5,35.7,26.5,27.2,22.0,17.4,80,59,36,30.30,30.20,20,4,31,0.02
2013-3-28,48.8,38.8,31.9,26.4,18.6,12.0,69,45,26,30.31,30.24,19,2,24,0.00
2013-3-29,47.0,38.2,33.7,31.0,23.5,18.2,78,56,36,30.30,30.23,18,4,32,0.01
2013-3-30,45.1,36.7,27.5,27.7,23.4,20.4,81,60,39,30.35,30.22,23,6,35,0.00
2013-3-31,49.2,38.3,25.4,22.9,13.4,5.5,83,41,17,30.35,30.22,27,5,32,0.00
2013-4-1,44.9,32.7,24.0,31.3,22.7,17.1,85,68,42,30.27,30.10,11,2,15,0.05
2013-4-2,33.7,28.8,26.3,28.2,24.5,22.2,92,84,80,30.36,30.20,9,2,12,0.09
2013-4-3,44.8,34.0,24.0,28.7,22.4,18.0,92,65,41,30.40,30.32,19,3,30,0.00
2013-4-4,52.1,42.1,33.1,23.7,20.2,15.7,66,43,26,30.39,30.17,21,5,28,0.00
2013-4-5,54.3,43.3,30.9,29.0,19.2,13.5,82,41,24,30.16,29.80,20,4,38,0.06
2013-4-6,46.5,37.1,28.1,26.8,21.3,16.6,83,55,31,30.11,29.91,22,4,28,0.01
2013-4-7,45.6,35.9,30.1,30.2,22.9,19.8,80,60,39,30.06,29.89,24,6,33,0.01
2013-4-8,48.6,36.5,22.1,27.3,21.5,15.8,83,57,35,29.93,29.58,18,4,20,0.06
2013-4-9,21.9,8.7,0.0,17.5,3.7,-5.0,83,80,71,30.55,29.79,11,3,16,0.10
2013-4-10,28.4,15.7,-1.0,16.2,6.7,-6.0,83,68,50,30.63,30.29,31,5,52,0.01
2013-4-11,37.7,29.8,21.1,26.1,18.9,9.3,75,64,53,30.28,30.06,40,10,53,0.00
2013-4-12,41.7,32.7,26.3,24.6,19.0,7.6,81,60,25,30.14,30.06,22,5,38,0.00
2013-4-13,48.6,39.2,27.6,27.7,15.3,7.5,81,39,25,30.14,29.59,23,5,46,0.09
2013-4-14,32.2,24.4,19.6,27.0,14.6,5.8,83,67,38,30.02,29.56,32,6,41,0.13
2013-4-15,26.5,20.7,15.8,20.5,15.1,8.9,82,79,57,30.26,29.97,10,1,15,0.62
2013-4-16,31.0,20.1,14.5,25.2,15.5,10.0,89,82,78,30.28,30.11,10,2,17,0.06
2013-4-17,22.1,14.3,5.1,17.4,9.9,0.8,84,82,81,30.50,30.18,7,2,11,0.15
2013-4-18,19.2,11.9,4.2,8.4,3.6,0.0,82,70,53,30.71,30.47,34,10,48,0.00
2013-4-19,36.5,26.1,17.9,18.7,12.5,7.0,70,57,42,30.64,30.31,40,10,49,0.00
2013-4-20,41.7,32.7,26.4,26.3,21.0,17.1,78,63,43,30.31,30.16,21,5,29,0.00
2013-4-21,44.1,34.9,27.7,22.6,17.7,11.7,76,51,30,30.30,30.18,20,5,29,0.00
2013-4-22,38.0,24.6,10.8,28.6,17.9,6.1,89,76,54,30.44,30.07,17,4,22,0.36
2013-4-23,26.6,17.0,9.2,18.5,9.1,4.5,82,72,45,30.62,30.41,20,3,27,0.16
2013-4-24,34.9,22.3,14.3,13.9,7.5,2.4,64,53,37,30.60,30.53,25,6,36,0.00
2013-4-25,44.2,39.2,35.2,17.7,16.1,14.7,47,39,32,30.22,30.16,6,1,7,0.00
2013-4-26,47.6,40.7,33.7,17.5,14.8,11.5,48,35,24,30.42,30.19,11,2,15,0.00
2013-4-27,53.1,44.6,36.4,17.7,13.7,9.6,43,29,20,30.40,30.20,23,7,28,0.00
2013-4-28,59.0,49.4,41.6,26.5,18.8,12.2,46,30,22,30.20,29.96,23,6,37,0.00
2013-4-29,59.6,49.1,37.8,29.2,23.6,18.6,68,40,21,29.98,29.72,23,6,35,0.00
2013-4-30,50.2,42.3,29.3,35.7,30.5,19.6,83,64,35,29.94,29.65,11,2,14,0.11
2013-5-1,29.2,20.4,12.6,24.5,15.7,7.8,89,82,79,30.89,29.95,13,3,18,0.43
2013-5-2,30.8,21.3,8.3,21.4,12.7,3.9,92,70,54,31.12,30.83,22,4,27,0.00
2013-5-3,46.2,36.3,27.0,25.3,15.5,8.0,66,44,24,30.83,30.30,21,5,29,0.00
2013-5-4,39.2,31.3,29.3,20.9,18.3,15.0,68,59,41,30.31,30.25,5,0,7,0.00
2013-5-6,48.8,47.1,44.7,32.4,30.6,27.1,58,53,45,30.16,30.08,10,4,15,0.00
2013-5-7,36.7,36.2,35.6,30.8,30.5,30.0,80,80,79,30.11,30.10,5,2,7,0.00
2013-5-8,40.0,36.2,32.7,34.0,29.3,25.9,83,76,64,30.17,30.05,12,3,19,0.35
2013-5-9,39.9,35.7,32.8,34.2,30.6,27.6,86,81,77,30.44,30.39,13,3,17,0.43
2013-5-10,47.2,38.3,31.5,35.1,29.9,25.1,83,72,49,30.53,30.40,15,2,26,0.10
2013-5-11,53.1,42.4,33.0,35.0,28.9,22.7,80,60,35,30.57,30.40,21,4,36,0.00
2013-5-12,61.2,51.4,40.6,31.4,28.2,25.9,63,42,28,30.40,30.21,19,6,28,0.00
2013-5-13,68.2,58.7,50.2,36.6,31.1,26.3,43,36,22,30.22,30.02,28,6,38,0.00
2013-5-14,69.1,56.8,50.3,39.4,32.4,26.9,65,41,22,30.02,29.90,19,5,23,0.00
2013-5-15,64.4,51.2,43.4,40.5,34.2,28.5,77,55,29,29.98,29.90,12,4,20,0.02
2013-5-16,64.8,53.7,42.9,36.2,31.4,25.4,73,45,25,29.96,29.87,18,4,33,0.00
2013-5-17,70.6,58.6,47.0,32.1,21.0,5.9,54,28,8,29.90,29.75,18,4,27,0.00
2013-5-18,58.8,48.9,39.3,31.7,22.8,13.4,69,38,24,29.87,29.76,21,4,33,0.00
2013-5-19,48.9,41.5,36.1,28.4,26.0,22.7,71,55,38,29.98,29.84,27,9,37,0.00
2013-5-20,47.9,40.4,36.0,34.1,28.3,24.1,77,62,46,30.16,29.94,21,6,33,0.00
2013-5-21,52.5,42.0,32.4,28.6,24.9,19.2,66,52,34,30.18,30.07,21,7,29,0.00
2013-5-22,60.5,47.8,35.9,39.1,31.1,22.5,80,55,28,30.11,29.97,14,2,18,0.02
2013-5-23,59.2,48.4,39.3,45.0,39.9,34.1,85,73,52,30.10,29.98,15,2,15,0.00
2013-5-24,71.2,57.5,42.8,37.8,25.5,6.6,82,35,8,30.03,29.92,11,4,21,0.00
2013-5-25,72.1,59.2,48.2,39.9,15.4,-1.0,70,22,6,29.94,29.88,12,3,19,0.00
2013-6-2,58.8,56.1,54.2,29.3,27.6,21.8,36,33,28,29.93,29.87,5,2,8,0.00
2013-6-3,72.1,61.9,52.8,30.6,22.3,16.8,36,23,13,29.87,29.71,25,6,33,0.00
2013-6-4,65.3,50.8,38.5,45.2,35.6,12.7,85,59,23,30.15,29.81,17,3,21,0.13
2013-6-5,51.5,42.4,35.8,43.9,37.1,32.5,92,82,66,30.27,30.11,9,2,12,0.00
2013-6-6,61.5,52.7,39.2,38.6,32.3,24.5,80,47,31,30.26,30.10,13,3,20,0.00
2013-6-7,65.8,54.5,43.5,41.7,34.5,27.8,68,49,25,30.13,29.85,16,3,21,0.00
2013-6-8,66.3,57.2,52.8,45.1,36.8,30.5,70,47,28,29.85,29.74,22,7,38,0.00
2013-6-13,80.2,68.5,56.1,50.3,34.0,23.4,59,31,13,29.96,29.77,16,3,21,0.01
2013-6-14,75.0,61.8,52.1,38.8,33.0,19.4,58,36,13,29.89,29.80,14,2,18,0.00
2013-6-15,66.5,56.1,44.7,47.0,42.0,32.9,77,60,46,30.06,29.86,13,2,15,0.00
2013-6-16,66.4,56.6,50.0,43.8,34.5,28.1,73,44,28,30.14,30.03,24,4,32,0.00
2013-6-17,68.1,57.4,49.5,44.0,35.4,28.8,68,45,23,30.12,30.04,12,2,19,0.00
2013-6-18,69.7,55.3,48.0,47.5,36.9,32.0,74,52,28,30.06,29.96,10,2,14,0.07
2013-6-20,71.0,65.0,57.7,37.7,27.3,23.5,47,25,17,29.83,29.72,13,2,19,0.00
2013-6-21,76.6,64.0,54.5,41.4,25.3,12.4,60,25,9,29.83,29.73,14,2,18,0.00
2013-6-22,72.5,60.3,49.4,40.1,30.5,19.4,61,35,15,29.85,29.72,12,2,20,0.00
2013-6-23,69.7,58.3,46.5,43.4,32.4,18.7,55,38,25,29.90,29.79,14,3,17,0.00
2013-6-24,73.3,60.7,46.4,38.8,28.1,12.1,72,35,10,29.86,29.75,12,3,21,0.00
2013-6-25,74.7,62.9,52.9,33.8,28.0,19.7,39,27,19,29.97,29.77,16,4,27,0.00
2013-6-26,81.3,68.1,55.9,34.9,31.9,28.9,38,27,16,30.01,29.93,14,3,23,0.00
2013-6-27,82.6,70.9,61.2,38.3,33.2,24.9,41,26,13,30.09,29.98,18,3,24,0.00
2013-6-28,81.8,67.9,50.8,51.9,40.4,28.5,76,40,16,30.09,29.96,20,4,22,0.22
2013-6-29,68.7,59.3,50.7,51.6,45.5,42.2,77,61,46,30.14,30.01,10,2,15,0.13
2013-6-30,68.8,56.7,50.5,51.5,46.6,42.0,79,70,44,30.18,30.06,18,3,23,0.00
2013-7-1,63.0,54.2,49.1,49.6,44.2,37.9,80,70,49,30.26,30.17,14,2,16,0.15
2013-7-2,65.7,56.5,47.9,48.7,42.6,35.6,80,61,42,30.25,30.11,16,3,18,0.00
2013-7-3,71.8,58.6,49.9,50.1,41.3,33.3,76,55,34,30.11,29.90,17,3,29,0.15
2013-7-4,73.0,59.8,52.2,51.7,42.2,37.5,77,54,32,29.98,29.90,17,4,24,0.12
2013-7-5,72.1,61.2,53.5,49.6,44.9,39.7,74,56,37,29.90,29.80,19,4,23,0.02
2013-7-6,71.2,61.9,53.9,47.4,44.4,41.4,69,54,37,29.92,29.81,22,5,34,0.00
2013-7-7,72.3,62.8,55.1,53.4,44.7,38.9,70,53,32,30.01,29.90,22,3,25,0.04
2013-7-8,76.7,63.4,49.1,46.1,42.2,35.7,77,49,23,30.05,29.97,19,6,26,0.13
2013-7-9,77.7,67.3,58.8,44.0,37.1,31.4,45,34,20,30.08,30.03,18,4,22,0.01
2013-7-10,76.8,64.9,54.2,51.8,43.1,36.7,61,46,31,30.07,29.93,14,2,17,0.05
2013-7-11,80.3,67.7,54.7,50.2,42.7,27.0,75,44,15,29.98,29.74,13,2,21,0.11
2013-7-12,74.9,60.7,54.4,52.0,47.2,42.9,80,62,41,30.01,29.79,15,3,21,0.05
2013-7-13,73.3,59.5,52.4,56.2,47.9,43.6,82,67,41,30.12,29.99,9,2,17,0.77
2013-7-14,66.5,57.6,51.5,53.7,48.4,44.1,82,72,55,30.18,30.06,12,2,16,0.25
2013-7-15,67.6,55.9,50.9,56.7,49.4,44.9,86,79,66,30.16,30.07,13,1,15,0.04
2013-7-16,68.4,58.3,49.5,51.4,46.1,42.7,83,65,44,30.16,30.08,11,2,15,0.00
2013-7-17,75.3,63.7,52.0,52.8,46.0,40.3,69,54,39,30.16,30.03,11,2,14,0.00
2013-7-18,76.1,63.3,53.2,51.3,46.2,40.9,75,55,37,30.06,29.93,21,4,23,0.05
2013-7-19,67.3,59.0,52.8,52.6,48.1,42.6,79,68,52,30.11,30.02,16,3,17,0.00
2013-7-20,86.8,62.4,49.6,55.0,42.7,25.4,78,51,15,30.04,29.87,13,3,19,0.12
2013-7-21,79.2,66.5,51.3,49.5,34.2,19.0,77,34,11,29.91,29.82,19,6,27,0.00
2013-7-22,78.7,69.0,61.2,41.6,24.3,9.9,41,20,8,29.91,29.82,18,5,32,0.00
2013-7-23,80.1,67.8,56.8,50.1,27.7,9.6,75,28,10,29.96,29.85,12,3,24,0.00
2013-7-24,60.8,56.3,54.9,49.6,48.5,47.2,77,75,61,29.97,29.93,5,1,8,0.00
2013-7-25,62.1,53.0,47.4,48.7,45.3,42.1,83,75,57,30.30,30.11,20,3,22,0.38
2013-7-26,67.1,58.1,49.1,49.4,43.2,37.9,76,59,37,30.31,30.14,12,2,15,0.01
2013-7-27,73.7,60.2,48.4,51.3,42.0,32.7,85,55,26,30.14,29.89,13,4,20,0.42
2013-7-28,60.7,53.1,47.4,50.9,46.7,42.6,86,79,62,30.02,29.86,9,1,12,0.47
2013-7-29,64.4,55.3,50.8,47.9,44.2,41.1,81,67,47,30.18,29.97,10,3,19,0.04
2013-7-30,70.4,59.0,50.6,45.0,41.8,37.5,74,54,33,30.27,30.17,27,5,30,0.01
2013-7-31,72.9,62.5,54.2,47.4,41.7,34.2,73,48,26,30.25,30.10,10,2,15,0.00
2013-8-1,72.3,62.6,52.1,51.4,43.7,38.0,74,52,31,30.12,29.93,15,3,28,0.02
2013-8-4,72.4,62.9,54.6,46.7,43.1,38.3,70,50,30,30.16,30.07,20,5,24,0.00
2013-8-5,70.4,59.8,52.6,49.7,42.7,35.7,77,54,30,30.07,29.98,22,4,25,0.03
2013-8-6,71.5,58.6,50.6,45.7,40.2,33.1,79,53,25,30.05,29.95,13,4,23,0.10
2013-8-7,62.3,55.3,51.0,46.1,40.6,33.4,74,58,41,30.09,30.00,13,2,18,0.00
2013-8-8,63.1,54.2,46.6,51.0,41.3,31.8,77,62,40,30.18,30.01,14,1,21,0.00
2013-8-9,63.1,51.7,46.8,46.0,40.2,35.4,82,65,45,30.27,30.14,12,2,15,0.09
2013-8-10,70.2,57.9,49.5,46.5,38.2,30.2,64,49,25,30.27,30.13,24,3,27,0.01
2013-8-11,63.6,55.4,49.2,48.4,40.6,35.2,75,58,43,30.20,30.11,9,1,15,0.05
2013-8-12,64.7,54.7,45.3,49.0,40.9,35.1,85,61,34,30.25,30.16,10,2,13,0.53
2013-8-13,57.3,50.5,44.4,49.7,42.5,38.6,84,74,60,30.32,30.16,22,4,29,0.33
2013-8-14,68.4,55.7,46.0,43.0,38.2,30.4,76,54,27,30.29,30.13,23,4,29,0.00
2013-8-15,71.1,60.1,51.1,43.3,34.7,27.3,61,40,20,30.17,30.07,21,4,26,0.00
2013-8-16,73.8,62.8,52.9,39.1,33.4,23.8,57,35,16,30.14,30.08,11,3,17,0.00
2013-8-17,76.4,66.6,55.6,36.9,30.3,23.0,47,27,14,30.10,29.95,16,3,21,0.00
2013-8-18,75.0,64.6,57.0,41.9,37.1,30.8,53,37,24,30.05,29.92,22,4,24,0.00
2013-8-19,73.8,64.6,56.4,40.4,37.8,34.9,51,38,27,30.05,29.96,14,4,21,0.00
2013-8-20,77.8,66.7,58.8,42.6,36.0,28.5,47,33,18,29.98,29.89,11,2,13,0.00
2013-8-21,71.7,62.6,53.8,51.2,42.5,36.8,80,49,35,30.05,29.92,10,2,16,0.28
2013-8-22,69.3,59.4,51.7,53.6,46.8,42.8,77,64,42,30.14,30.05,12,2,16,0.04
2013-8-23,70.2,60.4,49.2,52.5,47.3,43.0,80,64,39,30.07,30.00,12,3,17,0.79
2013-8-24,65.9,56.1,49.1,50.3,44.8,40.7,81,66,53,30.13,30.02,9,3,15,0.24
2013-8-25,68.8,58.8,52.3,51.9,46.3,42.0,82,64,44,30.16,30.09,9,2,13,0.09
2013-8-26,73.1,60.8,54.4,57.6,49.0,44.4,81,66,42,30.13,30.07,13,2,18,0.38
2013-8-27,72.2,66.3,60.4,54.2,50.5,46.2,65,57,47,30.12,30.02,11,2,15,0.00
2013-8-28,75.3,63.9,58.1,52.0,47.8,43.1,66,56,40,30.05,29.97,9,2,13,0.00
2013-8-29,73.5,62.2,53.1,49.6,44.5,40.3,79,54,33,30.16,30.04,20,4,25,0.14
2013-8-30,73.9,62.5,57.1,48.6,43.3,39.6,69,50,35,30.15,30.10,13,2,18,0.00
2013-8-31,72.4,59.5,52.9,51.9,45.7,40.9,79,62,38,30.10,30.01,9,3,14,0.19
2013-9-1,65.6,56.6,50.3,54.7,48.0,43.2,79,73,59,30.16,30.09,10,2,14,0.00
2013-9-2,71.8,63.2,56.0,54.7,45.1,38.9,75,52,39,30.13,29.99,12,2,16,0.05
2013-9-3,74.1,65.2,58.8,50.6,45.7,38.1,62,50,32,30.04,29.97,13,3,22,0.00
2013-9-4,76.0,63.5,58.4,52.4,46.3,41.0,74,54,36,30.13,30.01,10,2,16,0.07
2013-9-5,74.2,65.3,59.1,55.3,44.4,39.8,63,47,35,30.13,30.04,9,2,10,0.02
2013-9-6,75.3,63.8,54.6,49.4,43.6,38.0,72,49,32,30.08,29.97,15,2,21,0.01
2013-9-7,74.1,64.9,55.8,46.5,42.7,38.1,67,45,31,30.05,29.96,12,2,18,0.00
2013-9-8,72.9,61.7,55.0,50.9,43.4,37.2,76,52,34,29.95,29.79,10,2,21,0.02
2013-9-9,65.8,57.0,50.9,51.7,46.0,42.2,79,67,54,29.90,29.84,14,2,16,0.16
2013-9-10,49.8,49.3,48.7,46.9,46.4,45.8,90,90,89,30.25,30.24,6,2,9,0.75
2013-9-11,53.7,50.2,48.3,51.1,47.4,45.5,95,91,88,30.25,30.20,8,1,11,0.79
2013-9-12,56.3,50.0,46.9,50.9,46.7,44.4,91,89,82,30.33,30.22,10,2,13,1.21
2013-9-13,60.1,51.1,47.7,53.2,47.1,44.3,92,87,68,30.22,29.96,7,1,16,0.61
2013-9-14,59.7,51.2,46.9,49.2,44.5,41.0,85,78,58,30.05,29.94,7,2,15,0.13
2013-9-15,48.3,45.6,43.9,45.4,42.2,41.1,90,88,85,30.33,30.05,8,2,11,0.42
2013-9-16,60.2,49.8,39.0,52.2,43.4,36.3,91,80,59,30.32,30.15,8,1,13,0.01
2013-9-17,65.7,56.5,49.3,43.6,38.9,35.1,69,53,37,30.16,29.85,11,2,16,0.00
2013-9-18,66.4,54.0,47.4,44.7,38.7,35.7,75,57,35,29.92,29.79,19,4,42,0.01
2013-9-19,53.0,45.2,40.0,43.0,37.9,35.0,88,76,60,30.26,29.89,10,2,14,0.03
2013-9-20,61.9,48.4,36.3,43.5,34.7,16.9,86,63,18,30.29,30.15,13,2,21,0.00
2013-9-21,66.0,56.2,47.0,40.6,32.4,23.7,49,41,33,30.15,29.82,12,2,17,0.00
2013-9-22,56.5,49.4,39.2,38.9,34.8,29.3,85,60,37,29.83,29.56,7,1,10,0.25
2013-9-23,45.2,40.5,37.1,34.6,29.3,24.0,84,65,48,30.28,29.48,45,14,65,0.12
2013-9-24,62.5,50.1,39.5,33.4,24.4,10.7,56,38,17,30.32,29.94,10,2,21,0.00
2013-9-25,67.8,56.6,46.9,31.1,19.9,10.6,36,25,13,29.94,29.51,16,3,24,0.00
2013-9-26,57.3,47.9,37.4,41.7,34.9,22.4,82,63,32,29.78,29.53,9,2,20,0.00
2013-9-27,46.6,37.8,28.5,38.4,32.2,19.4,92,81,59,30.12,29.75,27,3,36,0.19
2013-9-28,53.7,38.6,27.8,26.7,20.0,11.9,72,49,30,30.44,30.11,31,6,36,0.00
2013-9-29,59.9,48.9,39.0,22.9,17.9,13.7,44,30,17,30.37,29.95,26,5,40,0.00
2013-9-30,66.1,56.0,46.7,34.6,26.6,20.6,45,33,23,30.01,29.83,19,4,34,0.00
2013-10-1,60.8,52.3,46.8,39.2,31.0,21.2,65,45,31,30.01,29.92,12,2,16,0.00
2013-10-2,61.0,51.6,41.7,36.8,28.3,20.5,78,42,27,30.01,29.88,15,2,19,0.00
2013-10-3,49.2,43.6,38.5,39.0,32.6,20.7,88,67,36,29.88,29.71,9,1,11,0.01
2013-10-4,38.5,27.5,20.8,35.2,21.5,12.2,89,78,65,30.42,29.73,28,6,46,0.26
2013-10-5,38.0,29.7,21.1,13.3,10.0,3.9,69,46,27,30.62,30.37,35,12,43,0.00
2013-10-6,52.9,43.2,33.6,27.2,21.7,6.0,54,43,29,30.59,30.38,24,5,32,0.00
2013-10-7,64.5,52.7,41.8,24.1,14.9,1.6,45,24,10,30.38,29.98,17,3,23,0.00
2013-10-8,63.8,52.2,45.2,28.7,19.6,7.6,46,29,11,29.98,29.75,14,2,16,0.00
2013-10-9,54.0,44.8,35.8,36.0,29.2,23.5,84,56,38,30.00,29.82,13,2,17,0.00
2013-10-10,49.2,39.1,32.1,37.6,30.5,22.2,86,72,56,30.00,29.61,22,4,39,0.09
2013-10-11,42.9,36.3,32.5,28.3,24.5,22.0,75,62,48,30.23,29.61,43,11,68,0.00
2013-10-12,44.3,35.6,28.3,32.4,26.0,17.6,85,69,36,30.35,30.22,11,2,17,0.00
2013-10-13,54.6,41.3,30.8,36.8,30.3,23.4,85,66,42,30.33,30.00,8,2,15,0.00
2013-10-14,40.1,34.4,29.2,31.8,25.9,22.3,84,71,58,30.31,29.88,21,5,33,0.05
2013-10-15,29.5,24.8,21.8,23.4,20.5,17.9,86,84,74,30.52,30.30,6,1,9,0.01
2013-10-16,36.1,29.1,22.5,20.8,17.2,11.2,92,62,44,30.50,30.34,26,6,33,0.01
2013-10-17,39.5,31.5,25.1,24.9,18.2,11.4,83,59,35,30.37,30.21,13,3,22,0.00
2013-10-18,29.2,25.0,19.2,21.8,15.2,6.5,92,68,40,30.48,30.21,38,7,39,0.22
2013-10-19,42.0,35.1,27.6,19.7,16.2,12.2,61,46,34,30.50,30.15,31,10,47,0.00
2013-10-20,38.8,32.8,23.8,29.1,20.9,16.9,92,63,43,30.31,30.09,18,3,31,0.06
2013-10-21,39.4,31.9,23.7,21.1,19.1,17.1,83,60,42,30.52,30.31,22,6,31,0.00
2013-10-22,50.2,41.7,34.1,25.1,22.4,19.3,57,47,35,30.49,30.29,22,4,30,0.00
2013-10-23,53.4,43.3,36.0,29.4,23.2,17.8,67,46,25,30.31,30.22,12,2,24,0.00
2013-10-24,53.7,42.9,34.4,26.9,22.9,12.0,68,47,19,30.33,30.26,11,2,17,0.00
2013-10-25,53.2,44.8,38.1,30.4,21.5,15.8,66,41,24,30.34,30.21,15,3,19,0.00
2013-10-26,50.1,40.3,30.9,30.3,23.9,16.7,75,53,35,30.42,30.31,10,2,20,0.00
2013-10-27,50.4,43.4,37.5,21.7,18.6,15.3,45,37,25,30.31,29.99,22,5,28,0.00
2013-10-28,41.9,33.4,24.0,29.5,22.7,18.1,86,67,39,30.10,29.96,9,1,11,0.00
2013-10-29,47.4,33.0,29.0,26.2,24.7,15.1,85,73,27,30.10,29.95,10,1,14,0.04
2013-10-30,35.1,28.7,24.5,26.5,19.2,15.1,86,68,52,30.12,29.91,17,5,30,0.13
2013-10-31,30.2,26.9,23.4,20.7,16.2,11.9,73,64,53,30.28,30.06,46,13,54,0.00
2013-11-1,32.5,29.4,27.3,22.2,18.8,15.7,77,65,52,30.53,30.22,27,8,36,0.00
2013-11-2,54.4,42.4,27.9,16.3,0.5,-16.0,59,21,6,30.52,29.91,19,4,33,0.00
2013-11-3,49.4,41.6,22.3,21.6,9.4,-15.0,66,30,6,29.91,29.61,21,4,33,0.00
2013-11-4,28.4,23.6,18.4,20.7,13.8,0.5,83,68,32,30.22,29.82,14,2,21,0.00
2013-11-5,26.7,19.6,14.8,20.4,7.7,-4.0,83,61,36,30.55,30.17,28,5,45,0.00
2013-11-6,31.4,25.9,17.9,16.2,10.6,-5.0,63,52,34,30.73,30.47,47,13,56,0.00
2013-11-7,48.8,37.3,26.8,19.4,16.8,14.4,63,45,27,30.72,30.21,18,4,28,0.00
2013-11-8,47.2,42.2,36.0,18.7,13.9,6.3,42,32,22,30.21,29.85,32,7,45,0.00
2013-11-9,51.1,41.4,34.8,19.4,15.4,10.7,43,35,25,30.34,30.17,17,2,30,0.00
2013-11-10,49.7,42.1,37.4,18.6,15.4,13.2,44,34,26,30.38,30.32,22,5,24,0.00
2013-11-11,48.8,39.8,23.2,20.2,16.4,11.5,81,40,23,30.65,30.33,21,4,31,0.00
2013-11-12,47.5,36.5,22.7,22.8,18.1,2.5,83,51,20,30.76,30.62,8,2,17,0.00
2013-11-13,48.2,42.4,37.5,16.2,7.7,0.0,41,24,18,30.63,30.15,21,6,30,0.00
2013-11-14,41.6,35.6,30.4,24.0,11.8,-6.0,72,40,15,30.18,29.96,16,4,30,0.00
2013-11-15,44.5,35.0,27.5,23.8,11.0,-9.0,82,41,15,29.95,29.64,20,4,24,0.00
2013-11-16,38.2,29.4,23.4,22.7,16.3,8.5,84,60,37,29.76,29.51,33,8,42,0.14
2013-11-17,35.0,26.3,17.4,18.2,15.4,8.8,83,65,34,30.42,29.73,45,10,65,0.07
2013-11-18,49.6,38.1,30.2,16.6,7.3,-2.0,55,29,12,30.46,30.21,32,6,50,0.00
2013-11-19,42.6,36.4,31.0,25.7,15.0,1.9,79,44,22,30.20,29.89,19,4,27,0.01
2013-11-20,40.0,33.4,24.5,24.4,21.2,17.6,82,62,42,30.11,29.96,15,4,29,0.01
2013-11-21,24.3,12.5,2.2,19.6,8.0,-2.0,84,82,78,30.96,30.10,11,1,14,0.10
2013-11-22,28.6,20.2,12.1,18.5,8.5,-5.0,82,63,26,31.04,30.91,7,1,9,0.08
2013-11-23,28.0,21.0,17.6,22.3,15.2,9.5,83,78,58,30.91,30.62,9,1,10,0.02
2013-11-24,38.9,32.1,26.0,28.1,24.1,4.7,83,73,35,30.62,30.16,14,3,18,0.00
2013-11-25,29.8,25.7,21.0,18.5,14.4,4.0,80,63,34,30.61,30.21,23,2,24,0.00
2013-11-26,32.2,27.7,22.2,15.7,14.0,11.1,69,56,46,30.72,30.57,18,5,23,0.00
2013-11-27,43.9,35.7,27.2,16.2,12.6,7.8,50,39,24,30.57,30.33,22,5,27,0.00
2013-11-28,45.3,36.1,29.3,19.5,14.0,9.8,54,40,29,30.35,30.27,9,1,12,0.00
2013-11-29,39.5,34.4,29.2,17.0,13.5,7.8,53,42,31,30.40,30.28,25,6,36,0.00
2013-11-30,38.6,32.2,28.2,13.8,9.2,2.6,50,38,23,30.45,30.37,18,5,28,0.00
2013-12-1,35.6,31.3,27.2,23.0,14.2,6.4,69,49,37,30.41,30.02,48,10,58,0.00
2013-12-5,11.0,0.4,-12.0,1.9,-6.8,-17.0,81,71,52,30.59,30.44,5,0,9,0.01
2013-12-6,9.3,-0.9,-12.0,0.8,-6.7,-17.0,81,75,53,30.80,30.57,4,0,7,0.00
2013-12-7,18.8,10.4,1.5,8.1,1.4,-5.0,78,66,52,30.75,30.10,7,1,10,0.00
2013-12-8,12.2,7.3,0.0,6.3,-2.5,-11.0,80,63,46,30.40,29.99,35,4,37,0.00
2013-12-9,11.1,1.9,-5.0,0.0,-10.9,-17.0,66,54,38,30.84,30.39,41,13,62,0.00
2013-12-10,24.1,19.6,10.0,9.0,5.0,-1.0,61,53,47,30.82,30.43,49,20,65,0.00
2013-12-11,30.6,24.3,13.4,6.3,-4.3,-13.0,71,30,15,30.71,30.53,27,6,33,0.00
2013-12-12,46.3,36.3,29.7,2.6,-5.5,-14.0,23,16,11,30.69,30.11,16,6,26,0.00
2013-12-13,33.3,27.9,19.8,10.5,6.3,-3.0,59,41,21,30.35,29.95,27,9,40,0.00
2013-12-14,26.6,21.3,15.1,13.2,7.7,4.5,63,55,44,30.64,30.36,34,11,47,0.00
2013-12-15,34.8,30.0,24.1,15.7,13.0,9.1,65,50,34,30.63,30.36,50,14,56,0.00
2013-12-16,39.5,35.8,33.7,17.1,10.0,2.3,50,35,24,30.47,30.27,56,19,67,0.00
2013-12-17,42.2,37.5,32.7,12.4,8.9,3.6,37,30,20,30.55,30.30,29,8,38,0.00
2013-12-18,47.4,39.8,32.6,11.6,7.9,5.6,40,27,20,30.30,29.86,24,4,35,0.00
2013-12-19,44.4,32.6,16.8,18.5,14.5,9.9,84,51,25,29.86,29.66,12,2,27,0.00
2013-12-20,27.5,24.6,23.0,17.8,15.2,13.5,76,67,60,29.86,29.82,4,0,7,0.00
2013-12-21,24.3,19.1,12.9,9.8,6.6,3.4,70,58,46,30.19,29.80,17,6,24,0.00
2013-12-22,19.8,15.9,11.7,11.3,5.6,1.6,80,64,51,30.57,30.19,34,8,59,0.00
2013-12-23,28.5,23.4,16.7,19.3,13.6,10.3,80,66,53,30.66,30.48,35,9,44,0.03
2013-12-24,34.5,24.5,14.5,23.3,13.4,0.0,81,63,49,30.56,30.28,41,12,58,0.02
2013-12-25,31.9,23.2,16.0,4.1,-0.1,-7.0,50,36,18,30.78,30.55,22,6,38,0.00
2013-12-26,36.4,30.0,25.8,14.4,7.1,-8.0,59,39,18,30.64,30.52,31,8,47,0.00
2013-12-27,44.4,35.6,27.6,18.5,16.1,13.0,59,45,32,30.59,30.27,9,2,16,0.00
2013-12-28,38.9,30.0,13.5,17.9,15.4,9.0,82,56,39,30.28,30.04,18,4,32,0.07
2013-12-29,23.7,18.3,12.1,9.7,4.4,-4.0,82,57,29,30.48,30.28,44,8,54,0.01
2013-12-30,28.2,23.6,19.4,11.7,8.1,3.0,70,52,35,30.58,30.39,29,8,46,0.00
2013-12-31,36.3,30.6,25.8,18.1,15.3,7.2,64,53,39,30.49,30.14,38,8,58,0.00
2014-1-1,29.4,21.8,17.4,20.6,12.9,7.5,82,69,54,30.56,30.10,25,9,43,0.04
2014-1-2,36.6,29.1,19.7,17.8,6.1,-9.0,58,39,16,30.65,30.28,32,9,42,0.00